Time;durP1;ratioP1;P1;durP2;ratioP2;P2;SDS_P1;SDS_P2;PMS_P1;PMS_P2;Temp;Humidity;BMP_temperature;BMP_pressure;BME280_temperature;BME280_humidity;BME280_pressure;Samples;Min_cycle;Max_cycle;Signal;HPM_P1;HPM_P2
2022/03/01 00:00:49;;;;;;;1.48;1.10;;;;;;;;;;2080484;28;20033;-70
2022/03/01 00:02:07;;;;;;;2.35;1.17;;;;;;;;;;2076197;28;20022;-69
2022/03/01 00:03:26;;;;;;;1.83;1.10;;;;;;;;;;2081798;28;20055;-69
2022/03/01 00:04:45;;;;;;;2.38;1.20;;;;;;;;;;2081407;28;20033;-70
2022/03/01 00:06:04;;;;;;;6.50;1.63;;;;;;;;;;2082051;28;20399;-70
2022/03/01 00:07:23;;;;;;;1.88;1.20;;;;;;;;;;2080521;28;20030;-70
2022/03/01 00:08:42;;;;;;;4.50;1.08;;;;;;;;;;2079781;28;20029;-70
2022/03/01 00:10:01;;;;;;;2.55;1.00;;;;;;;;;;2080997;28;20112;-69
2022/03/01 00:11:23;;;;;;;2.15;1.00;;;;;;;;;;2080121;28;20029;-70
2022/03/01 00:12:42;;;;;;;3.38;1.20;;;;;;;;;;2080686;28;20025;-69
2022/03/01 00:14:01;;;;;;;4.47;1.60;;;;;;;;;;2081913;28;20021;-70
2022/03/01 00:15:20;;;;;;;4.32;1.20;;;;;;;;;;2081011;28;20045;-69
2022/03/01 00:16:38;;;;;;;4.03;1.02;;;;;;;;;;2080147;28;20396;-70
2022/03/01 00:17:57;;;;;;;2.90;1.25;;;;;;;;;;2081574;28;20113;-70
2022/03/01 00:19:16;;;;;;;3.03;1.20;;;;;;;;;;2081038;28;20478;-70
2022/03/01 00:20:35;;;;;;;1.75;1.42;;;;;;;;;;2081048;28;20029;-69
2022/03/01 00:21:55;;;;;;;4.68;1.27;;;;;;;;;;2079726;28;20041;-69
2022/03/01 00:23:13;;;;;;;1.88;1.23;;;;;;;;;;2081233;28;20034;-70
2022/03/01 00:24:32;;;;;;;2.25;1.50;;;;;;;;;;2081552;28;20046;-69
2022/03/01 00:25:51;;;;;;;3.70;1.40;;;;;;;;;;2080656;28;20551;-69
2022/03/01 00:27:10;;;;;;;3.40;1.40;;;;;;;;;;2080198;28;20050;-68
2022/03/01 00:28:29;;;;;;;1.85;1.35;;;;;;;;;;2080833;28;20045;-69
2022/03/01 00:29:48;;;;;;;3.00;1.40;;;;;;;;;;2080077;28;20026;-69
2022/03/01 00:31:07;;;;;;;4.93;1.35;;;;;;;;;;2081632;28;20041;-69
2022/03/01 00:32:26;;;;;;;1.35;1.23;;;;;;;;;;2080156;28;20025;-69
2022/03/01 00:33:45;;;;;;;1.65;1.35;;;;;;;;;;2080138;28;20029;-70
2022/03/01 00:35:04;;;;;;;2.05;1.33;;;;;;;;;;2080809;28;20077;-70
2022/03/01 00:36:23;;;;;;;1.52;1.40;;;;;;;;;;2081296;28;20034;-70
2022/03/01 00:37:42;;;;;;;3.95;1.83;;;;;;;;;;2079415;28;20516;-69
2022/03/01 00:39:01;;;;;;;1.92;1.60;;;;;;;;;;2080613;28;20500;-69
2022/03/01 00:40:20;;;;;;;2.33;1.40;;;;;;;;;;2080023;28;20033;-70
2022/03/01 00:41:39;;;;;;;2.05;1.30;;;;;;;;;;2074566;28;20118;-69
2022/03/01 00:42:57;;;;;;;2.15;1.40;;;;;;;;;;2077515;28;20029;-70
2022/03/01 00:44:16;;;;;;;3.42;1.30;;;;;;;;;;2081503;28;20054;-70
2022/03/01 00:45:35;;;;;;;2.75;1.27;;;;;;;;;;2081380;28;20041;-70
2022/03/01 00:46:54;;;;;;;1.83;1.50;;;;;;;;;;2080877;28;20034;-70
2022/03/01 00:48:13;;;;;;;2.65;1.70;;;;;;;;;;2079627;28;20057;-70
2022/03/01 00:49:32;;;;;;;1.65;1.33;;;;;;;;;;2081047;28;20041;-70
2022/03/01 00:50:51;;;;;;;4.40;1.70;;;;;;;;;;2080972;28;20021;-69
2022/03/01 00:52:10;;;;;;;3.40;1.70;;;;;;;;;;2079956;28;20030;-69
2022/03/01 00:53:29;;;;;;;5.05;1.42;;;;;;;;;;2078982;28;20471;-69
2022/03/01 00:54:48;;;;;;;3.47;1.70;;;;;;;;;;2080787;28;20056;-71
2022/03/01 00:56:07;;;;;;;2.10;1.50;;;;;;;;;;2079723;28;20021;-69
2022/03/01 00:57:26;;;;;;;2.13;1.33;;;;;;;;;;2081499;28;20548;-69
2022/03/01 00:58:45;;;;;;;7.03;1.60;;;;;;;;;;2079622;28;20060;-70
2022/03/01 01:00:07;;;;;;;3.28;1.20;;;;;;;;;;2080754;28;20041;-69
2022/03/01 01:01:26;;;;;;;2.95;1.60;;;;;;;;;;2080088;28;20022;-69
2022/03/01 01:02:45;;;;;;;2.83;1.60;;;;;;;;;;2080435;28;20033;-69
2022/03/01 01:04:04;;;;;;;2.38;1.45;;;;;;;;;;2081439;28;20037;-70
2022/03/01 01:05:23;;;;;;;3.72;1.30;;;;;;;;;;2080448;28;20483;-69
2022/03/01 01:06:41;;;;;;;2.40;1.60;;;;;;;;;;2080607;28;20511;-70
2022/03/01 01:08:01;;;;;;;9.10;2.00;;;;;;;;;;2080919;28;20034;-70
2022/03/01 01:09:20;;;;;;;3.55;1.83;;;;;;;;;;2079963;28;20037;-70
2022/03/01 01:10:39;;;;;;;5.40;1.38;;;;;;;;;;2080393;28;20112;-70
2022/03/01 01:11:58;;;;;;;4.68;1.58;;;;;;;;;;2079260;28;20452;-69
2022/03/01 01:13:17;;;;;;;2.45;1.58;;;;;;;;;;2081597;28;20488;-70
2022/03/01 01:14:36;;;;;;;2.58;1.20;;;;;;;;;;2080769;28;20034;-69
2022/03/01 01:15:55;;;;;;;3.38;1.50;;;;;;;;;;2080366;28;20093;-70
2022/03/01 01:17:14;;;;;;;2.00;1.30;;;;;;;;;;2079461;28;20022;-69
2022/03/01 01:18:33;;;;;;;1.90;1.55;;;;;;;;;;2080257;28;20491;-70
2022/03/01 01:19:52;;;;;;;2.35;1.40;;;;;;;;;;2081619;28;20507;-70
2022/03/01 01:21:12;;;;;;;3.05;1.92;;;;;;;;;;2081924;28;20034;-69
2022/03/01 01:22:39;;;;;;;5.00;1.92;;;;;;;;;;2080288;28;20104;-70
2022/03/01 01:23:58;;;;;;;2.53;1.45;;;;;;;;;;2079333;28;20030;-69
2022/03/01 01:25:21;;;;;;;4.03;1.90;;;;;;;;;;2080200;28;20029;-70
2022/03/01 01:26:40;;;;;;;;;;;;;;;;;;2080063;28;20033;-69
2022/03/01 01:27:59;;;;;;;4.53;1.70;;;;;;;;;;2080716;28;19913;-70
2022/03/01 01:29:18;;;;;;;3.92;1.83;;;;;;;;;;2080117;28;20064;-70
2022/03/01 01:30:37;;;;;;;3.35;1.60;;;;;;;;;;2080257;28;20041;-70
2022/03/01 01:31:56;;;;;;;2.80;1.73;;;;;;;;;;2081097;28;20040;-70
2022/03/01 01:33:15;;;;;;;2.53;1.40;;;;;;;;;;2079571;28;20025;-69
2022/03/01 01:34:34;;;;;;;2.88;1.45;;;;;;;;;;2079465;28;20025;-70
2022/03/01 01:35:53;;;;;;;1.60;1.50;;;;;;;;;;2081029;28;20029;-70
2022/03/01 01:37:12;;;;;;;1.88;1.30;;;;;;;;;;2079907;28;20384;-69
2022/03/01 01:38:31;;;;;;;6.18;1.52;;;;;;;;;;2080031;28;20037;-68
2022/03/01 01:39:49;;;;;;;2.80;1.33;;;;;;;;;;2078907;28;20443;-70
2022/03/01 01:41:08;;;;;;;1.60;1.40;;;;;;;;;;2079976;28;20034;-69
2022/03/01 01:42:27;;;;;;;1.92;1.38;;;;;;;;;;2080550;28;20053;-69
2022/03/01 01:43:46;;;;;;;5.03;1.83;;;;;;;;;;2081537;28;20412;-69
2022/03/01 01:45:06;;;;;;;3.40;1.50;;;;;;;;;;2079874;28;20041;-70
2022/03/01 01:46:25;;;;;;;1.88;1.63;;;;;;;;;;2079445;28;20057;-70
2022/03/01 01:47:44;;;;;;;1.73;1.30;;;;;;;;;;2080335;28;20053;-70
2022/03/01 01:49:03;;;;;;;2.08;1.23;;;;;;;;;;2081236;28;20065;-70
2022/03/01 01:50:22;;;;;;;1.88;1.35;;;;;;;;;;2079347;28;20041;-70
2022/03/01 01:51:41;;;;;;;1.70;1.60;;;;;;;;;;2080408;28;20488;-70
2022/03/01 01:53:00;;;;;;;4.85;1.80;;;;;;;;;;2080575;28;20479;-69
2022/03/01 01:54:19;;;;;;;2.78;1.75;;;;;;;;;;2080048;28;20456;-69
2022/03/01 01:55:38;;;;;;;4.93;1.58;;;;;;;;;;2080224;28;20037;-69
2022/03/01 01:56:57;;;;;;;3.10;1.60;;;;;;;;;;2081068;28;20022;-68
2022/03/01 01:58:17;;;;;;;1.75;1.48;;;;;;;;;;2079902;28;20038;-69
2022/03/01 01:59:36;;;;;;;2.10;1.33;;;;;;;;;;2080317;28;20026;-69
2022/03/01 02:00:55;;;;;;;3.08;1.73;;;;;;;;;;2078250;28;20030;-69
2022/03/01 02:02:15;;;;;;;2.55;1.45;;;;;;;;;;2080510;28;20033;-70
2022/03/01 02:03:34;;;;;;;3.33;1.60;;;;;;;;;;2071404;28;20113;-69
2022/03/01 02:04:53;;;;;;;2.70;1.75;;;;;;;;;;2074167;28;20057;-69
2022/03/01 02:06:12;;;;;;;1.55;1.40;;;;;;;;;;2080660;28;20042;-70
2022/03/01 02:07:31;;;;;;;3.78;1.67;;;;;;;;;;2080214;28;20030;-69
2022/03/01 02:08:50;;;;;;;2.75;1.73;;;;;;;;;;2079643;28;20052;-69
2022/03/01 02:10:09;;;;;;;2.78;1.73;;;;;;;;;;2079636;28;20057;-69
2022/03/01 02:11:28;;;;;;;1.88;1.48;;;;;;;;;;2080814;28;20041;-70
2022/03/01 02:12:47;;;;;;;3.63;1.98;;;;;;;;;;2079790;28;20100;-70
2022/03/01 02:14:05;;;;;;;4.25;1.88;;;;;;;;;;2081347;28;20029;-70
2022/03/01 02:15:26;;;;;;;2.45;1.52;;;;;;;;;;2079300;28;20451;-69
2022/03/01 02:16:45;;;;;;;3.10;1.35;;;;;;;;;;2080231;28;20025;-70
2022/03/01 02:18:04;;;;;;;2.22;1.60;;;;;;;;;;2080730;28;20025;-68
2022/03/01 02:19:23;;;;;;;4.53;1.70;;;;;;;;;;2080316;28;20025;-69
2022/03/01 02:20:43;;;;;;;3.03;1.67;;;;;;;;;;2079385;28;20037;-69
2022/03/01 02:22:04;;;;;;;1.50;1.33;;;;;;;;;;2079871;28;20029;-68
2022/03/01 02:23:23;;;;;;;4.20;1.63;;;;;;;;;;2080039;28;20026;-69
2022/03/01 02:24:42;;;;;;;3.30;1.38;;;;;;;;;;2081008;28;20034;-71
2022/03/01 02:26:01;;;;;;;4.07;1.88;;;;;;;;;;2080564;28;20033;-70
2022/03/01 02:27:21;;;;;;;2.17;1.55;;;;;;;;;;2080270;28;20037;-70
2022/03/01 02:28:40;;;;;;;3.78;1.80;;;;;;;;;;2080651;28;20033;-70
2022/03/01 02:29:59;;;;;;;1.60;1.50;;;;;;;;;;2079417;28;20508;-70
2022/03/01 02:31:18;;;;;;;2.30;1.70;;;;;;;;;;2080147;28;20459;-70
2022/03/01 02:32:38;;;;;;;5.32;1.58;;;;;;;;;;2079831;28;20025;-70
2022/03/01 02:33:57;;;;;;;2.58;1.40;;;;;;;;;;2080555;28;20029;-70
2022/03/01 02:35:17;;;;;;;3.90;1.83;;;;;;;;;;2081110;28;20045;-71
2022/03/01 02:36:36;;;;;;;2.45;1.73;;;;;;;;;;2078451;28;20021;-70
2022/03/01 02:37:55;;;;;;;5.00;1.80;;;;;;;;;;2077178;28;20029;-70
2022/03/01 02:39:14;;;;;;;2.22;1.60;;;;;;;;;;2080428;28;20033;-71
2022/03/01 02:40:33;;;;;;;2.25;1.48;;;;;;;;;;2080395;28;20080;-70
2022/03/01 02:41:52;;;;;;;3.25;1.67;;;;;;;;;;2079578;28;20073;-70
2022/03/01 02:43:11;;;;;;;5.00;1.60;;;;;;;;;;2080605;28;20029;-70
2022/03/01 02:44:30;;;;;;;3.30;1.83;;;;;;;;;;2079751;28;20034;-70
2022/03/01 02:45:49;;;;;;;2.67;1.50;;;;;;;;;;2080370;28;20405;-70
2022/03/01 02:47:08;;;;;;;2.35;1.65;;;;;;;;;;2079582;28;20029;-69
2022/03/01 02:48:26;;;;;;;1.25;1.15;;;;;;;;;;2077717;28;20440;-70
2022/03/01 02:49:45;;;;;;;2.08;1.77;;;;;;;;;;2080376;28;20061;-71
2022/03/01 02:51:04;;;;;;;5.40;1.63;;;;;;;;;;2080325;28;20147;-70
2022/03/01 02:52:23;;;;;;;3.53;1.40;;;;;;;;;;2079782;28;20516;-70
2022/03/01 02:53:42;;;;;;;3.33;1.67;;;;;;;;;;2080076;28;20029;-70
2022/03/01 02:55:02;;;;;;;4.72;1.63;;;;;;;;;;2081202;28;20022;-70
2022/03/01 02:56:22;;;;;;;1.63;1.35;;;;;;;;;;2080658;28;20029;-70
2022/03/01 02:57:41;;;;;;;4.30;2.03;;;;;;;;;;2080540;28;20060;-71
2022/03/01 02:59:00;;;;;;;2.08;1.40;;;;;;;;;;2079143;28;20504;-70
2022/03/01 03:00:19;;;;;;;4.32;1.80;;;;;;;;;;2078283;28;20037;-72
2022/03/01 03:01:38;;;;;;;3.78;1.50;;;;;;;;;;2080039;28;20049;-71
2022/03/01 03:02:58;;;;;;;2.55;1.20;;;;;;;;;;2080406;28;20033;-70
2022/03/01 03:04:16;;;;;;;2.42;1.67;;;;;;;;;;2080899;28;20496;-70
2022/03/01 03:05:35;;;;;;;2.83;1.85;;;;;;;;;;2080387;28;20042;-71
2022/03/01 03:06:54;;;;;;;1.85;1.60;;;;;;;;;;2079721;28;20515;-70
2022/03/01 03:08:13;;;;;;;2.55;1.85;;;;;;;;;;2080211;28;20041;-70
2022/03/01 03:09:32;;;;;;;3.28;1.70;;;;;;;;;;2080430;28;20458;-70
2022/03/01 03:10:51;;;;;;;3.42;1.60;;;;;;;;;;2081283;28;20097;-71
2022/03/01 03:12:10;;;;;;;2.58;1.50;;;;;;;;;;2079014;28;20053;-69
2022/03/01 03:13:29;;;;;;;2.28;1.52;;;;;;;;;;2080320;28;20026;-69
2022/03/01 03:14:47;;;;;;;2.38;1.75;;;;;;;;;;2080564;28;20033;-69
2022/03/01 03:16:10;;;;;;;1.85;1.40;;;;;;;;;;2080553;28;20029;-70
2022/03/01 03:17:29;;;;;;;1.50;1.40;;;;;;;;;;2079641;28;20017;-70
2022/03/01 03:18:48;;;;;;;2.28;1.45;;;;;;;;;;2079906;28;20112;-71
2022/03/01 03:20:08;;;;;;;2.85;1.38;;;;;;;;;;2079041;28;20120;-70
2022/03/01 03:21:27;;;;;;;2.20;1.70;;;;;;;;;;2080776;28;20030;-70
2022/03/01 03:22:46;;;;;;;2.38;1.50;;;;;;;;;;2078995;28;20500;-70
2022/03/01 03:24:05;;;;;;;3.67;1.52;;;;;;;;;;2081192;28;20038;-69
2022/03/01 03:25:24;;;;;;;3.85;1.55;;;;;;;;;;2081019;28;20112;-69
2022/03/01 03:26:43;;;;;;;2.63;1.50;;;;;;;;;;2078922;28;20034;-69
2022/03/01 03:28:02;;;;;;;2.50;1.70;;;;;;;;;;2079070;28;20042;-70
2022/03/01 03:29:21;;;;;;;3.95;1.70;;;;;;;;;;2080495;28;20065;-69
2022/03/01 03:30:40;;;;;;;2.92;1.38;;;;;;;;;;2080242;28;20042;-69
2022/03/01 03:31:59;;;;;;;2.33;1.45;;;;;;;;;;2080626;28;20034;-70
2022/03/01 03:33:18;;;;;;;2.45;1.50;;;;;;;;;;2079415;28;20574;-69
2022/03/01 03:34:37;;;;;;;2.88;1.58;;;;;;;;;;2079837;28;20030;-69
2022/03/01 03:35:56;;;;;;;2.38;1.33;;;;;;;;;;2080742;28;20121;-69
2022/03/01 03:37:15;;;;;;;1.75;1.48;;;;;;;;;;2080730;28;20037;-69
2022/03/01 03:38:34;;;;;;;2.55;1.70;;;;;;;;;;2079284;28;20034;-69
2022/03/01 03:39:53;;;;;;;1.58;1.20;;;;;;;;;;2079958;28;20034;-69
2022/03/01 03:41:12;;;;;;;2.05;1.73;;;;;;;;;;2080569;28;20033;-69
2022/03/01 03:42:31;;;;;;;2.58;1.50;;;;;;;;;;2078593;28;20049;-68
2022/03/01 03:43:50;;;;;;;2.35;1.80;;;;;;;;;;2080976;28;20105;-69
2022/03/01 03:45:10;;;;;;;2.13;1.42;;;;;;;;;;2082588;28;20025;-71
2022/03/01 03:46:29;;;;;;;2.75;1.48;;;;;;;;;;2082458;28;20025;-69
2022/03/01 03:47:48;;;;;;;3.25;1.60;;;;;;;;;;2082089;28;20018;-69
2022/03/01 03:49:07;;;;;;;1.88;1.30;;;;;;;;;;2081022;28;20060;-69
2022/03/01 03:50:26;;;;;;;2.10;1.80;;;;;;;;;;2080813;28;20065;-69
2022/03/01 03:51:45;;;;;;;2.08;1.30;;;;;;;;;;2082490;28;20025;-69
2022/03/01 03:53:04;;;;;;;2.30;1.50;;;;;;;;;;2081819;28;20483;-69
2022/03/01 03:54:23;;;;;;;3.03;1.40;;;;;;;;;;2080734;28;20034;-69
2022/03/01 03:55:42;;;;;;;1.67;1.40;;;;;;;;;;2081304;28;20476;-69
2022/03/01 03:57:07;;;;;;;1.63;1.52;;;;;;;;;;2081931;28;20026;-69
2022/03/01 03:58:25;;;;;;;2.45;1.50;;;;;;;;;;2078681;28;20037;-69
2022/03/01 03:59:44;;;;;;;3.20;1.80;;;;;;;;;;2081377;28;20490;-70
2022/03/01 04:01:04;;;;;;;2.22;2.03;;;;;;;;;;2082515;28;20029;-70
2022/03/01 04:02:22;;;;;;;2.22;1.48;;;;;;;;;;2081274;28;20037;-70
2022/03/01 04:03:41;;;;;;;2.35;1.77;;;;;;;;;;2080214;28;20470;-69
2022/03/01 04:05:00;;;;;;;1.88;1.55;;;;;;;;;;2081585;28;20025;-69
2022/03/01 04:06:19;;;;;;;1.63;1.35;;;;;;;;;;2081891;28;20029;-69
2022/03/01 04:07:37;;;;;;;3.25;1.70;;;;;;;;;;2081598;28;20395;-70
2022/03/01 04:08:56;;;;;;;4.65;1.42;;;;;;;;;;2080857;28;20021;-70
2022/03/01 04:10:16;;;;;;;3.17;1.65;;;;;;;;;;2081345;28;20064;-69
2022/03/01 04:11:35;;;;;;;2.30;1.40;;;;;;;;;;2082101;28;20021;-70
2022/03/01 04:12:54;;;;;;;1.65;1.42;;;;;;;;;;2080824;28;20108;-69
2022/03/01 04:14:13;;;;;;;2.42;1.55;;;;;;;;;;2081019;28;20480;-70
2022/03/01 04:15:32;;;;;;;1.60;1.38;;;;;;;;;;2081507;28;20034;-70
2022/03/01 04:16:51;;;;;;;5.13;1.65;;;;;;;;;;2080796;28;20018;-70
2022/03/01 04:18:10;;;;;;;4.15;1.92;;;;;;;;;;2080493;28;20023;-70
2022/03/01 04:19:29;;;;;;;2.38;1.75;;;;;;;;;;2080978;28;20104;-70
2022/03/01 04:20:48;;;;;;;2.72;1.40;;;;;;;;;;2082129;28;20033;-69
2022/03/01 04:22:07;;;;;;;2.90;1.52;;;;;;;;;;2082267;28;20029;-69
2022/03/01 04:23:27;;;;;;;2.53;1.60;;;;;;;;;;2081673;28;20120;-69
2022/03/01 04:24:46;;;;;;;2.42;1.90;;;;;;;;;;2079855;28;20029;-70
2022/03/01 04:26:05;;;;;;;2.20;1.65;;;;;;;;;;2080109;28;20037;-70
2022/03/01 04:27:25;;;;;;;2.13;1.30;;;;;;;;;;2081189;28;20033;-70
2022/03/01 04:28:44;;;;;;;2.85;1.63;;;;;;;;;;2081714;28;20041;-69
2022/03/01 04:30:03;;;;;;;4.07;1.85;;;;;;;;;;2079971;28;20042;-69
2022/03/01 04:31:22;;;;;;;1.92;1.83;;;;;;;;;;2080504;28;20029;-69
2022/03/01 04:32:41;;;;;;;2.33;1.30;;;;;;;;;;2081616;28;20483;-70
2022/03/01 04:34:01;;;;;;;1.67;1.25;;;;;;;;;;2080481;28;20403;-69
2022/03/01 04:35:20;;;;;;;4.55;1.90;;;;;;;;;;2080875;28;20132;-70
2022/03/01 04:36:39;;;;;;;4.00;1.60;;;;;;;;;;2080961;28;20033;-69
2022/03/01 04:37:58;;;;;;;3.95;1.88;;;;;;;;;;2080242;28;20112;-69
2022/03/01 04:39:17;;;;;;;3.95;1.70;;;;;;;;;;2081435;28;20525;-70
2022/03/01 04:40:36;;;;;;;3.13;1.67;;;;;;;;;;2080054;28;20480;-70
2022/03/01 04:41:56;;;;;;;2.38;1.58;;;;;;;;;;2081263;28;20117;-69
2022/03/01 04:43:15;;;;;;;3.20;1.42;;;;;;;;;;2081240;28;20459;-70
2022/03/01 04:44:34;;;;;;;2.53;1.77;;;;;;;;;;2080543;28;20427;-70
2022/03/01 04:45:53;;;;;;;3.08;1.90;;;;;;;;;;2080032;28;20041;-70
2022/03/01 04:47:14;;;;;;;3.67;1.98;;;;;;;;;;2081103;28;20448;-69
2022/03/01 04:48:33;;;;;;;2.72;1.60;;;;;;;;;;2080641;28;20037;-71
2022/03/01 04:49:51;;;;;;;3.17;1.67;;;;;;;;;;2081479;28;20037;-70
2022/03/01 04:51:10;;;;;;;4.72;2.03;;;;;;;;;;2079616;28;20055;-70
2022/03/01 04:52:29;;;;;;;4.50;2.30;;;;;;;;;;2080969;28;20108;-70
2022/03/01 04:53:49;;;;;;;2.63;1.80;;;;;;;;;;2079221;28;20054;-70
2022/03/01 04:55:08;;;;;;;2.65;1.70;;;;;;;;;;2079893;28;20022;-68
2022/03/01 04:56:27;;;;;;;2.75;1.73;;;;;;;;;;2080963;28;20029;-70
2022/03/01 04:57:46;;;;;;;5.03;1.73;;;;;;;;;;2081749;28;20033;-69
2022/03/01 04:59:05;;;;;;;3.55;1.88;;;;;;;;;;2080973;28;20388;-70
2022/03/01 05:00:25;;;;;;;4.05;1.90;;;;;;;;;;2078333;28;20021;-68
2022/03/01 05:01:44;;;;;;;4.45;2.00;;;;;;;;;;2079756;28;20037;-70
2022/03/01 05:03:04;;;;;;;9.95;1.65;;;;;;;;;;2080683;28;20025;-70
2022/03/01 05:04:23;;;;;;;2.08;1.42;;;;;;;;;;2081193;28;20114;-70
2022/03/01 05:05:41;;;;;;;2.75;1.70;;;;;;;;;;2080736;28;20026;-69
2022/03/01 05:07:00;;;;;;;5.85;1.80;;;;;;;;;;2079913;28;20041;-69
2022/03/01 05:08:19;;;;;;;1.92;1.70;;;;;;;;;;2080103;28;20030;-70
2022/03/01 05:09:38;;;;;;;3.28;1.75;;;;;;;;;;2080811;28;20042;-70
2022/03/01 05:10:57;;;;;;;3.80;2.05;;;;;;;;;;2079845;28;20462;-70
2022/03/01 05:12:17;;;;;;;3.63;1.95;;;;;;;;;;2080844;28;20041;-70
2022/03/01 05:13:36;;;;;;;2.92;1.67;;;;;;;;;;2080415;28;20049;-70
2022/03/01 05:14:55;;;;;;;3.88;2.00;;;;;;;;;;2080444;28;20029;-69
2022/03/01 05:16:14;;;;;;;5.72;1.65;;;;;;;;;;2080065;28;20033;-70
2022/03/01 05:17:34;;;;;;;5.45;1.70;;;;;;;;;;2080210;28;20068;-69
2022/03/01 05:18:52;;;;;;;3.15;1.67;;;;;;;;;;2081465;28;20034;-70
2022/03/01 05:20:12;;;;;;;5.68;1.90;;;;;;;;;;2080165;28;20164;-70
2022/03/01 05:21:31;;;;;;;2.13;1.58;;;;;;;;;;2079198;28;20026;-70
2022/03/01 05:22:50;;;;;;;7.97;2.05;;;;;;;;;;2081489;28;20505;-70
2022/03/01 05:24:09;;;;;;;3.47;2.05;;;;;;;;;;2080283;28;20491;-70
2022/03/01 05:25:28;;;;;;;3.30;1.58;;;;;;;;;;2081051;28;20030;-70
2022/03/01 05:26:47;;;;;;;13.85;2.30;;;;;;;;;;2079875;28;20025;-71
2022/03/01 05:28:06;;;;;;;10.43;2.30;;;;;;;;;;2079806;28;20046;-71
2022/03/01 05:29:25;;;;;;;3.78;2.25;;;;;;;;;;2080695;28;20038;-70
2022/03/01 05:30:44;;;;;;;4.20;2.30;;;;;;;;;;2080257;28;20026;-70
2022/03/01 05:32:03;;;;;;;2.63;1.92;;;;;;;;;;2080387;28;20030;-70
2022/03/01 05:33:22;;;;;;;3.92;2.00;;;;;;;;;;2081220;28;20059;-69
2022/03/01 05:34:41;;;;;;;4.22;1.90;;;;;;;;;;2080915;28;20025;-70
2022/03/01 05:36:00;;;;;;;3.28;1.80;;;;;;;;;;2080987;28;20038;-70
2022/03/01 05:37:19;;;;;;;3.13;1.70;;;;;;;;;;2079069;28;20384;-70
2022/03/01 05:38:38;;;;;;;3.88;1.80;;;;;;;;;;2080815;28;20391;-71
2022/03/01 05:39:57;;;;;;;4.50;2.03;;;;;;;;;;2080745;28;20116;-70
2022/03/01 05:41:17;;;;;;;2.20;1.67;;;;;;;;;;2080005;28;20077;-70
2022/03/01 05:42:37;;;;;;;5.50;2.05;;;;;;;;;;2079644;28;20025;-70
2022/03/01 05:43:56;;;;;;;3.63;1.80;;;;;;;;;;2079618;28;20512;-69
2022/03/01 05:45:15;;;;;;;2.40;2.17;;;;;;;;;;2081300;28;20391;-70
2022/03/01 05:46:34;;;;;;;4.57;1.90;;;;;;;;;;2080669;28;20029;-70
2022/03/01 05:47:53;;;;;;;5.57;1.80;;;;;;;;;;2079970;28;20033;-69
2022/03/01 05:49:12;;;;;;;2.53;1.95;;;;;;;;;;2080856;28;20419;-70
2022/03/01 05:50:31;;;;;;;2.55;1.77;;;;;;;;;;2079436;28;20037;-68
2022/03/01 05:51:50;;;;;;;5.60;1.58;;;;;;;;;;2080549;28;20041;-69
2022/03/01 05:53:09;;;;;;;2.45;2.05;;;;;;;;;;2080396;28;20030;-70
2022/03/01 05:54:28;;;;;;;3.80;2.00;;;;;;;;;;2081382;28;20034;-69
2022/03/01 05:55:47;;;;;;;7.97;2.22;;;;;;;;;;2079146;28;20108;-70
2022/03/01 05:57:06;;;;;;;3.10;1.70;;;;;;;;;;2080963;28;20030;-70
2022/03/01 05:58:25;;;;;;;5.38;2.20;;;;;;;;;;2079591;28;20037;-70
2022/03/01 05:59:44;;;;;;;3.85;2.15;;;;;;;;;;2081281;28;20479;-70
2022/03/01 06:01:02;;;;;;;6.38;1.67;;;;;;;;;;2080413;28;20041;-69
2022/03/01 06:02:22;;;;;;;6.78;2.20;;;;;;;;;;2080204;28;20041;-70
2022/03/01 06:03:41;;;;;;;3.72;2.15;;;;;;;;;;2079082;28;20034;-69
2022/03/01 06:05:00;;;;;;;6.90;2.55;;;;;;;;;;2080919;28;20034;-70
2022/03/01 06:06:19;;;;;;;7.43;2.03;;;;;;;;;;2080301;28;20033;-69
2022/03/01 06:07:38;;;;;;;9.60;2.88;;;;;;;;;;2079297;28;20100;-69
2022/03/01 06:08:57;;;;;;;4.25;1.83;;;;;;;;;;2080550;28;20026;-69
2022/03/01 06:10:15;;;;;;;3.95;2.47;;;;;;;;;;2078588;28;20108;-70
2022/03/01 06:11:34;;;;;;;5.20;2.05;;;;;;;;;;2080435;28;20029;-71
2022/03/01 06:12:54;;;;;;;8.10;2.78;;;;;;;;;;2080468;28;20108;-70
2022/03/01 06:14:13;;;;;;;4.22;2.10;;;;;;;;;;2081137;28;20474;-70
2022/03/01 06:15:31;;;;;;;5.57;1.60;;;;;;;;;;2081449;28;20057;-71
2022/03/01 06:16:50;;;;;;;3.92;2.40;;;;;;;;;;2079522;28;20491;-70
2022/03/01 06:18:09;;;;;;;4.03;2.58;;;;;;;;;;2080127;28;20033;-70
2022/03/01 06:19:28;;;;;;;5.10;2.05;;;;;;;;;;2080756;28;20112;-70
2022/03/01 06:20:47;;;;;;;6.85;2.42;;;;;;;;;;2080490;28;20361;-69
2022/03/01 06:22:06;;;;;;;4.25;2.25;;;;;;;;;;2079994;28;20507;-70
2022/03/01 06:23:26;;;;;;;9.70;2.35;;;;;;;;;;2079370;28;20507;-71
2022/03/01 06:24:45;;;;;;;4.10;2.00;;;;;;;;;;2072102;28;20029;-70
2022/03/01 06:26:03;;;;;;;7.45;2.20;;;;;;;;;;2077865;28;20026;-70
2022/03/01 06:27:23;;;;;;;9.25;2.20;;;;;;;;;;2080555;28;20045;-71
2022/03/01 06:28:41;;;;;;;8.77;2.38;;;;;;;;;;2079601;28;20037;-70
2022/03/01 06:30:00;;;;;;;6.25;2.22;;;;;;;;;;2079322;28;20038;-70
2022/03/01 06:31:19;;;;;;;4.18;2.33;;;;;;;;;;2080701;28;20563;-70
2022/03/01 06:32:38;;;;;;;7.97;2.35;;;;;;;;;;2079277;28;20029;-69
2022/03/01 06:33:57;;;;;;;5.53;2.60;;;;;;;;;;2079020;28;20026;-69
2022/03/01 06:35:16;;;;;;;12.23;2.45;;;;;;;;;;2080125;28;20121;-70
2022/03/01 06:36:35;;;;;;;8.27;2.65;;;;;;;;;;2080063;28;20037;-69
2022/03/01 06:37:54;;;;;;;8.63;2.83;;;;;;;;;;2078994;28;20100;-69
2022/03/01 06:39:13;;;;;;;10.80;2.67;;;;;;;;;;2079099;28;20034;-69
2022/03/01 06:40:32;;;;;;;5.70;2.28;;;;;;;;;;2079564;28;20368;-70
2022/03/01 06:41:51;;;;;;;14.43;2.80;;;;;;;;;;2080098;28;20388;-69
2022/03/01 06:43:10;;;;;;;11.73;2.83;;;;;;;;;;2079697;28;20029;-70
2022/03/01 06:44:29;;;;;;;5.47;2.70;;;;;;;;;;2079010;28;20034;-69
2022/03/01 06:45:48;;;;;;;9.07;2.25;;;;;;;;;;2080087;28;20114;-69
2022/03/01 06:47:07;;;;;;;10.05;3.30;;;;;;;;;;2079878;28;20029;-69
2022/03/01 06:48:27;;;;;;;7.80;2.70;;;;;;;;;;2080750;28;20041;-69
2022/03/01 06:49:46;;;;;;;8.40;2.97;;;;;;;;;;2078625;28;20479;-69
2022/03/01 06:51:07;;;;;;;5.72;3.05;;;;;;;;;;2080311;28;20513;-69
2022/03/01 06:52:26;;;;;;;3.28;2.45;;;;;;;;;;2080329;28;20029;-71
2022/03/01 06:53:45;;;;;;;8.95;2.63;;;;;;;;;;2079851;28;20014;-69
2022/03/01 06:55:05;;;;;;;3.30;2.50;;;;;;;;;;2079628;28;20476;-70
2022/03/01 06:56:24;;;;;;;5.85;2.90;;;;;;;;;;2080960;28;20476;-69
2022/03/01 06:57:43;;;;;;;7.47;2.50;;;;;;;;;;2080416;28;20026;-69
2022/03/01 06:59:02;;;;;;;8.20;2.80;;;;;;;;;;2080062;28;20033;-69
2022/03/01 07:00:21;;;;;;;6.63;3.17;;;;;;;;;;2079270;28;20116;-69
2022/03/01 07:01:40;;;;;;;4.40;2.78;;;;;;;;;;2079811;28;20041;-71
2022/03/01 07:02:59;;;;;;;6.53;2.95;;;;;;;;;;2080250;28;20100;-68
2022/03/01 07:04:18;;;;;;;6.53;2.40;;;;;;;;;;2080161;28;20041;-69
2022/03/01 07:05:36;;;;;;;6.60;2.67;;;;;;;;;;2075609;28;20037;-70
2022/03/01 07:06:55;;;;;;;6.50;3.00;;;;;;;;;;2079995;28;20034;-70
2022/03/01 07:08:14;;;;;;;7.22;2.85;;;;;;;;;;2080318;28;20104;-69
2022/03/01 07:09:33;;;;;;;10.40;3.33;;;;;;;;;;2079797;28;20415;-69
2022/03/01 07:10:53;;;;;;;9.70;3.00;;;;;;;;;;2080035;28;20076;-70
2022/03/01 07:12:11;;;;;;;5.25;2.72;;;;;;;;;;2080785;28;20117;-69
2022/03/01 07:13:30;;;;;;;4.07;2.58;;;;;;;;;;2079860;28;20105;-71
2022/03/01 07:14:49;;;;;;;6.72;3.00;;;;;;;;;;2080574;28;20034;-71
2022/03/01 07:16:08;;;;;;;4.95;2.35;;;;;;;;;;2079830;28;20025;-70
2022/03/01 07:17:27;;;;;;;6.13;3.00;;;;;;;;;;2080866;28;20399;-71
2022/03/01 07:18:46;;;;;;;5.15;3.05;;;;;;;;;;2081691;28;20025;-70
2022/03/01 07:20:07;;;;;;;8.18;3.30;;;;;;;;;;2081468;28;20018;-70
2022/03/01 07:21:26;;;;;;;7.40;3.42;;;;;;;;;;2081246;28;20550;-70
2022/03/01 07:22:45;;;;;;;7.13;3.72;;;;;;;;;;2081392;28;20448;-70
2022/03/01 07:24:04;;;;;;;3.70;2.63;;;;;;;;;;2077375;28;20407;-70
2022/03/01 07:25:23;;;;;;;8.98;3.72;;;;;;;;;;2080592;28;20033;-70
2022/03/01 07:26:42;;;;;;;7.00;3.70;;;;;;;;;;2081987;28;20112;-70
2022/03/01 07:28:02;;;;;;;7.65;3.20;;;;;;;;;;2079275;28;20042;-68
2022/03/01 07:29:20;;;;;;;7.47;3.15;;;;;;;;;;2081547;28;20395;-66
2022/03/01 07:30:39;;;;;;;9.32;3.38;;;;;;;;;;2080113;28;20037;-69
2022/03/01 07:31:58;;;;;;;5.22;3.38;;;;;;;;;;2080517;28;20025;-70
2022/03/01 07:33:17;;;;;;;8.05;3.92;;;;;;;;;;2080605;28;20034;-69
2022/03/01 07:34:36;;;;;;;5.53;3.35;;;;;;;;;;2081576;28;20042;-71
2022/03/01 07:35:55;;;;;;;11.35;3.90;;;;;;;;;;2080100;28;20055;-71
2022/03/01 07:37:14;;;;;;;4.63;3.53;;;;;;;;;;2081224;28;20025;-68
2022/03/01 07:38:33;;;;;;;5.90;3.70;;;;;;;;;;2081898;28;20034;-70
2022/03/01 07:39:55;;;;;;;6.80;3.05;;;;;;;;;;2081030;28;20042;-69
2022/03/01 07:41:14;;;;;;;6.20;3.40;;;;;;;;;;2079728;28;20034;-69
2022/03/01 07:42:33;;;;;;;10.95;3.60;;;;;;;;;;2080999;28;20025;-70
2022/03/01 07:43:52;;;;;;;10.57;3.38;;;;;;;;;;2081555;28;20029;-70
2022/03/01 07:45:11;;;;;;;4.30;3.17;;;;;;;;;;2080810;28;20026;-69
2022/03/01 07:46:30;;;;;;;8.60;3.33;;;;;;;;;;2079847;28;20029;-69
2022/03/01 07:47:50;;;;;;;5.15;3.20;;;;;;;;;;2081516;28;20034;-69
2022/03/01 07:49:09;;;;;;;6.40;3.25;;;;;;;;;;2080559;28;20404;-70
2022/03/01 07:50:29;;;;;;;10.38;3.75;;;;;;;;;;2080920;28;20038;-69
2022/03/01 07:51:48;;;;;;;7.70;4.35;;;;;;;;;;2079534;28;20038;-70
2022/03/01 07:53:07;;;;;;;6.75;3.53;;;;;;;;;;2081136;28;20065;-69
2022/03/01 07:54:26;;;;;;;4.32;3.22;;;;;;;;;;2080666;28;20029;-70